sensor_id;sensor_type;location;lat;lon;timestamp;P1;P2;P0
68341;PMS7003;55668;52.310;21.066;2023-08-12T00:05:55;14;14;
68341;PMS7003;55668;52.310;21.066;2023-08-12T00:39:32;14;14;
68341;PMS7003;55668;52.310;21.066;2023-08-12T00:52:02;14;14;
68341;PMS7003;55668;52.310;21.066;2023-08-12T01:09:16;11;11;
68341;PMS7003;55668;52.310;21.066;2023-08-12T01:25:24;11;11;
68341;PMS7003;55668;52.310;21.066;2023-08-12T01:42:36;12;12;
68341;PMS7003;55668;52.310;21.066;2023-08-12T01:57:45;13;13;
68341;PMS7003;55668;52.310;21.066;2023-08-12T02:43:45;11;11;
68341;PMS7003;55668;52.310;21.066;2023-08-12T02:55:57;10;10;
68341;PMS7003;55668;52.310;21.066;2023-08-12T03:25:16;12;12;
68341;PMS7003;55668;52.310;21.066;2023-08-12T03:44:24;12;12;
68341;PMS7003;55668;52.310;21.066;2023-08-12T03:56:15;12;12;
68341;PMS7003;55668;52.310;21.066;2023-08-12T04:11:30;11;10;
68341;PMS7003;55668;52.310;21.066;2023-08-12T04:26:37;11;11;
68341;PMS7003;55668;52.310;21.066;2023-08-12T04:42:08;11;11;
68341;PMS7003;55668;52.310;21.066;2023-08-12T04:57:46;15;15;
68341;PMS7003;55668;52.310;21.066;2023-08-12T05:09:58;12;12;
68341;PMS7003;55668;52.310;21.066;2023-08-12T05:12:18;12;12;
68341;PMS7003;55668;52.310;21.066;2023-08-12T05:14:35;12;12;
68341;PMS7003;55668;52.310;21.066;2023-08-12T05:21:32;11;11;
68341;PMS7003;55668;52.310;21.066;2023-08-12T05:28:21;12;12;
68341;PMS7003;55668;52.310;21.066;2023-08-12T05:36:41;12;12;
68341;PMS7003;55668;52.310;21.066;2023-08-12T05:51:02;12;12;
68341;PMS7003;55668;52.310;21.066;2023-08-12T06:14:22;13;13;
68341;PMS7003;55668;52.310;21.066;2023-08-12T06:30:15;14;14;
68341;PMS7003;55668;52.310;21.066;2023-08-12T06:47:35;11;11;
68341;PMS7003;55668;52.310;21.066;2023-08-12T07:00:37;9;9;
68341;PMS7003;55668;52.310;21.066;2023-08-12T07:17:22;9;9;
68341;PMS7003;55668;52.310;21.066;2023-08-12T07:31:43;6;6;
68341;PMS7003;55668;52.310;21.066;2023-08-12T07:48:09;10;10;
68341;PMS7003;55668;52.310;21.066;2023-08-12T07:54:39;10;10;
68341;PMS7003;55668;52.310;21.066;2023-08-12T08:10:44;4;4;
68341;PMS7003;55668;52.310;21.066;2023-08-12T08:24:52;4;4;
68341;PMS7003;55668;52.310;21.066;2023-08-12T08:41:16;4;4;
68341;PMS7003;55668;52.310;21.066;2023-08-12T08:56:01;3;3;
68341;PMS7003;55668;52.310;21.066;2023-08-12T09:10:43;4;4;
68341;PMS7003;55668;52.310;21.066;2023-08-12T09:26:35;4;4;
68341;PMS7003;55668;52.310;21.066;2023-08-12T09:57:17;3;3;
68341;PMS7003;55668;52.310;21.066;2023-08-12T10:12:52;5;5;
68341;PMS7003;55668;52.310;21.066;2023-08-12T10:31:47;6;6;
68341;PMS7003;55668;52.310;21.066;2023-08-12T10:42:48;4;4;
68341;PMS7003;55668;52.310;21.066;2023-08-12T11:35:03;5;5;
68341;PMS7003;55668;52.310;21.066;2023-08-12T11:45:44;7;7;
68341;PMS7003;55668;52.310;21.066;2023-08-12T12:00:33;7;7;
68341;PMS7003;55668;52.310;21.066;2023-08-12T12:15:26;8;8;
68341;PMS7003;55668;52.310;21.066;2023-08-12T12:49:29;11;10;
68341;PMS7003;55668;52.310;21.066;2023-08-12T13:01:03;9;9;
68341;PMS7003;55668;52.310;21.066;2023-08-12T13:33:03;7;7;
68341;PMS7003;55668;52.310;21.066;2023-08-12T13:50:29;9;9;
68341;PMS7003;55668;52.310;21.066;2023-08-12T14:02:15;8;8;
68341;PMS7003;55668;52.310;21.066;2023-08-12T14:33:09;11;9;
68341;PMS7003;55668;52.310;21.066;2023-08-12T14:50:29;7;7;
68341;PMS7003;55668;52.310;21.066;2023-08-12T15:35:18;7;7;
68341;PMS7003;55668;52.310;21.066;2023-08-12T15:52:57;5;5;
68341;PMS7003;55668;52.310;21.066;2023-08-12T16:05:16;8;8;
68341;PMS7003;55668;52.310;21.066;2023-08-12T16:21:17;6;6;
68341;PMS7003;55668;52.310;21.066;2023-08-12T16:35:46;7;6;
68341;PMS7003;55668;52.310;21.066;2023-08-12T16:51:47;8;8;
68341;PMS7003;55668;52.310;21.066;2023-08-12T17:08:04;7;7;
68341;PMS7003;55668;52.310;21.066;2023-08-12T17:22:37;5;5;
68341;PMS7003;55668;52.310;21.066;2023-08-12T17:38:22;12;7;
68341;PMS7003;55668;52.310;21.066;2023-08-12T17:53:47;15;15;
68341;PMS7003;55668;52.310;21.066;2023-08-12T18:08:20;11;11;
68341;PMS7003;55668;52.310;21.066;2023-08-12T18:23:16;12;12;
68341;PMS7003;55668;52.310;21.066;2023-08-12T18:53:51;18;18;
68341;PMS7003;55668;52.310;21.066;2023-08-12T19:09:40;18;18;
68341;PMS7003;55668;52.310;21.066;2023-08-12T19:24:23;18;18;
68341;PMS7003;55668;52.310;21.066;2023-08-12T19:40:20;26;26;
68341;PMS7003;55668;52.310;21.066;2023-08-12T19:56:31;33;30;
68341;PMS7003;55668;52.310;21.066;2023-08-12T20:15:27;43;36;
68341;PMS7003;55668;52.310;21.066;2023-08-12T20:30:08;49;40;
68341;PMS7003;55668;52.310;21.066;2023-08-12T20:43:29;47;40;
68341;PMS7003;55668;52.310;21.066;2023-08-12T20:58:51;41;36;
68341;PMS7003;55668;52.310;21.066;2023-08-12T21:13:53;38;34;
68341;PMS7003;55668;52.310;21.066;2023-08-12T21:28:00;28;28;
68341;PMS7003;55668;52.310;21.066;2023-08-12T22:13:34;29;28;
68341;PMS7003;55668;52.310;21.066;2023-08-12T22:31:28;31;30;
68341;PMS7003;55668;52.310;21.066;2023-08-12T22:44:15;31;30;
68341;PMS7003;55668;52.310;21.066;2023-08-12T22:59:10;29;29;
68341;PMS7003;55668;52.310;21.066;2023-08-12T23:15:32;26;25;
68341;PMS7003;55668;52.310;21.066;2023-08-12T23:30:45;24;24;
68341;PMS7003;55668;52.310;21.066;2023-08-12T23:46:37;28;26;
